Time;durP1;ratioP1;P1;durP2;ratioP2;P2;SDS_P1;SDS_P2;PMS_P1;PMS_P2;Temp;Humidity;BMP_temperature;BMP_pressure;BME280_temperature;BME280_humidity;BME280_pressure;Samples;Min_cycle;Max_cycle;Signal;HPM_P1;HPM_P2
2022/04/26 03:37:34;;;;;;;15.00;9.57;;;8.40;99.60;;;;;;5038531;28;92524;-70
2022/04/26 03:40:01;;;;;;;20.50;10.18;;;8.40;99.60;;;;;;5038797;28;91930;-70
2022/04/26 03:42:28;;;;;;;15.35;10.15;;;8.40;99.90;;;;;;5037841;27;93009;-70
2022/04/26 03:44:54;;;;;;;20.80;10.35;;;8.40;99.60;;;;;;5036292;28;93102;-70
2022/04/26 03:47:22;;;;;;;22.35;11.23;;;8.50;99.60;;;;;;5035283;28;94828;-70
2022/04/26 03:49:49;;;;;;;22.70;10.63;;;8.50;99.60;;;;;;5037890;27;92341;-70
2022/04/26 03:52:16;;;;;;;16.52;10.13;;;8.40;99.60;;;;;;5037755;28;93252;-70
2022/04/26 03:54:43;;;;;;;18.80;10.75;;;8.40;99.60;;;;;;5037212;27;92415;-71
2022/04/26 03:57:10;;;;;;;20.60;9.60;;;8.40;99.70;;;;;;5036744;28;92687;-70
2022/04/26 03:59:37;;;;;;;20.67;9.63;;;8.40;99.70;;;;;;5036653;28;92495;-70
2022/04/26 04:02:04;;;;;;;15.60;9.10;;;8.40;99.70;;;;;;5036612;27;95879;-70
2022/04/26 04:04:31;;;;;;;20.27;9.25;;;8.40;99.70;;;;;;5038037;28;104687;-70
2022/04/26 04:07:00;;;;;;;16.77;7.10;;;8.40;99.80;;;;;;5038006;27;92499;-70
2022/04/26 04:09:27;;;;;;;14.85;8.55;;;8.40;99.70;;;;;;5036854;28;92527;-70
2022/04/26 04:11:53;;;;;;;14.55;7.97;;;8.40;99.70;;;;;;5034899;28;98147;-71
2022/04/26 04:14:20;;;;;;;20.85;8.65;;;8.40;99.70;;;;;;5037940;28;95544;-71
2022/04/26 04:16:47;;;;;;;12.52;6.35;;;8.40;99.70;;;;;;5036716;28;92511;-70
2022/04/26 04:19:17;;;;;;;19.45;9.30;;;8.40;99.60;;;;;;5036378;28;92565;-70
2022/04/26 04:21:45;;;;;;;15.10;7.32;;;8.40;99.60;;;;;;5037267;28;92804;-70
2022/04/26 04:24:18;;;;;;;14.00;7.38;;;8.30;99.50;;;;;;5036512;28;93043;-70
2022/04/26 04:26:45;;;;;;;14.23;8.07;;;8.30;99.60;;;;;;5036426;28;92396;-70
2022/04/26 04:29:13;;;;;;;22.50;7.68;;;8.40;99.60;;;;;;5038241;27;91756;-70
2022/04/26 04:31:41;;;;;;;16.90;7.75;;;8.40;99.60;;;;;;5037482;27;93754;-70
2022/04/26 04:34:08;;;;;;;13.60;7.75;;;8.30;99.60;;;;;;5018359;28;95648;-70
2022/04/26 04:36:35;;;;;;;11.73;7.10;;;8.30;99.50;;;;;;5036474;27;94813;-70
2022/04/26 04:39:02;;;;;;;13.50;7.82;;;8.40;99.50;;;;;;5037407;28;92424;-70
2022/04/26 04:41:35;;;;;;;19.15;7.28;;;8.30;99.60;;;;;;5037382;27;93321;-70
2022/04/26 04:44:04;;;;;;;11.95;5.07;;;8.40;99.40;;;;;;5037314;28;93133;-70
2022/04/26 04:46:32;;;;;;;12.25;7.15;;;8.50;99.30;;;;;;5037601;27;93010;-70
2022/04/26 04:48:59;;;;;;;13.15;6.95;;;8.60;99.20;;;;;;5037362;27;92404;-70
2022/04/26 04:51:26;;;;;;;15.55;7.57;;;8.70;99.10;;;;;;5037406;27;93132;-70
2022/04/26 04:53:53;;;;;;;16.42;5.90;;;8.70;98.80;;;;;;5035995;28;95659;-70
2022/04/26 04:56:20;;;;;;;10.57;7.15;;;8.80;98.60;;;;;;5036142;28;92484;-70
2022/04/26 04:58:47;;;;;;;12.85;6.50;;;8.80;98.40;;;;;;5036813;27;101517;-70
2022/04/26 05:01:15;;;;;;;15.50;7.05;;;8.90;98.60;;;;;;5035611;27;95845;-70
2022/04/26 05:03:42;;;;;;;14.60;6.65;;;9.00;98.20;;;;;;5036959;28;95442;-70
2022/04/26 05:06:11;;;;;;;8.98;5.97;;;9.10;98.20;;;;;;5035731;28;92523;-70
2022/04/26 05:08:43;;;;;;;13.35;5.72;;;9.20;97.90;;;;;;5036162;28;92491;-70
2022/04/26 05:11:10;;;;;;;11.00;6.13;;;9.20;97.60;;;;;;5035548;28;95775;-71
2022/04/26 05:13:38;;;;;;;16.42;5.93;;;9.20;97.50;;;;;;5035703;28;93028;-70
2022/04/26 05:16:05;;;;;;;12.27;5.88;;;9.30;97.50;;;;;;5035384;28;92435;-70
2022/04/26 05:18:32;;;;;;;12.70;6.05;;;9.30;97.30;;;;;;5037106;27;91703;-70
2022/04/26 05:20:59;;;;;;;14.50;6.03;;;9.40;97.50;;;;;;5036689;28;93258;-70
2022/04/26 05:26:11;;;;;;;16.00;5.22;;;9.40;97.30;;;;;;5035732;28;94868;-70
2022/04/26 05:28:38;;;;;;;8.70;4.63;;;9.30;97.30;;;;;;5036495;28;92598;-70
2022/04/26 05:31:06;;;;;;;13.10;6.07;;;9.30;97.10;;;;;;5034917;28;95702;-70
2022/04/26 05:33:33;;;;;;;11.52;4.70;;;9.40;97.10;;;;;;5035408;28;92541;-70
2022/04/26 05:36:00;;;;;;;11.70;5.10;;;9.40;97.10;;;;;;5018543;28;92521;-70
2022/04/26 05:38:27;;;;;;;10.93;6.40;;;9.50;97.00;;;;;;5035255;28;92446;-70
2022/04/26 05:40:54;;;;;;;11.77;4.72;;;9.60;96.90;;;;;;5036265;27;93168;-70
2022/04/26 05:43:21;;;;;;;14.15;5.55;;;9.70;96.60;;;;;;5036945;28;92853;-71
2022/04/26 05:45:48;;;;;;;11.73;5.03;;;9.80;96.50;;;;;;5036464;27;92451;-71
2022/04/26 05:48:15;;;;;;;9.45;4.85;;;9.70;96.30;;;;;;5035396;28;92516;-71
2022/04/26 05:50:42;;;;;;;10.55;4.97;;;9.80;96.40;;;;;;5033410;28;107715;-70
2022/04/26 05:53:10;;;;;;;11.95;5.10;;;9.80;96.20;;;;;;5034630;28;97695;-71
2022/04/26 05:55:38;;;;;;;9.68;5.15;;;9.90;96.20;;;;;;5036346;28;92467;-71
2022/04/26 05:58:05;;;;;;;12.32;4.82;;;10.00;96.20;;;;;;5036266;27;92444;-70
2022/04/26 06:00:32;;;;;;;14.05;5.53;;;10.00;96.00;;;;;;5036047;27;93356;-71
2022/04/26 06:03:00;;;;;;;9.50;4.80;;;10.10;95.70;;;;;;5036002;28;92482;-70
2022/04/26 06:05:28;;;;;;;8.77;5.00;;;10.10;95.70;;;;;;5018270;28;92584;-70
2022/04/26 06:07:55;;;;;;;11.60;5.53;;;10.20;95.50;;;;;;5036396;27;91687;-70
2022/04/26 06:10:22;;;;;;;12.52;4.88;;;10.30;95.70;;;;;;5034714;28;94229;-70
2022/04/26 06:12:49;;;;;;;8.85;4.90;;;10.30;95.40;;;;;;5034740;28;93295;-71
2022/04/26 06:15:17;;;;;;;8.70;4.70;;;10.50;95.40;;;;;;5034628;27;95055;-71
2022/04/26 06:17:44;;;;;;;7.72;4.15;;;10.80;95.10;;;;;;5035867;27;92471;-70
2022/04/26 06:20:12;;;;;;;8.60;4.30;;;11.30;94.20;;;;;;5034385;28;95643;-70
2022/04/26 06:22:39;;;;;;;8.40;3.47;;;11.40;93.30;;;;;;5034402;28;96051;-71
2022/04/26 06:25:07;;;;;;;7.28;3.58;;;11.40;93.00;;;;;;5035964;27;92748;-71
2022/04/26 06:27:34;;;;;;;13.57;4.47;;;11.40;93.10;;;;;;5034552;28;92826;-71
2022/04/26 06:30:01;;;;;;;9.00;4.78;;;11.50;93.10;;;;;;5035560;28;93308;-71
2022/04/26 06:32:28;;;;;;;8.10;4.30;;;11.60;93.20;;;;;;5034686;28;95485;-71
2022/04/26 06:34:55;;;;;;;11.15;4.57;;;11.40;92.80;;;;;;5035910;28;92417;-71
2022/04/26 06:37:23;;;;;;;9.00;3.97;;;11.30;93.00;;;;;;5018039;28;92942;-70
2022/04/26 06:39:53;;;;;;;8.57;4.35;;;11.10;93.30;;;;;;5034237;27;95511;-71
2022/04/26 06:42:20;;;;;;;8.80;4.88;;;10.90;93.50;;;;;;5035499;27;95117;-70
2022/04/26 06:44:47;;;;;;;10.13;4.30;;;10.90;93.80;;;;;;5034389;28;92893;-71
2022/04/26 06:47:14;;;;;;;11.60;4.50;;;10.90;93.80;;;;;;5017484;28;92483;-70
2022/04/26 06:49:41;;;;;;;11.52;4.13;;;10.80;93.90;;;;;;5034150;28;95422;-70
2022/04/26 06:52:08;;;;;;;8.88;4.30;;;10.90;94.00;;;;;;5017296;28;93084;-71
2022/04/26 06:54:35;;;;;;;9.73;3.28;;;10.90;93.80;;;;;;5035537;28;92401;-70
2022/04/26 06:57:03;;;;;;;4.70;3.80;;;10.70;93.50;;;;;;5036451;27;92093;-71
2022/04/26 06:59:30;;;;;;;8.63;4.75;;;10.70;93.70;;;;;;5037736;28;95636;-70
2022/04/26 07:01:57;;;;;;;6.45;3.50;;;10.70;93.80;;;;;;5020973;28;93717;-70
2022/04/26 07:04:25;;;;;;;7.88;4.15;;;10.70;93.70;;;;;;5037522;27;94745;-71
2022/04/26 07:06:52;;;;;;;9.73;4.50;;;10.80;93.70;;;;;;5037895;28;92542;-70
2022/04/26 07:09:19;;;;;;;13.15;4.53;;;10.90;93.80;;;;;;5038724;27;93160;-71
2022/04/26 07:11:46;;;;;;;9.82;4.13;;;11.10;93.40;;;;;;5037847;28;92969;-70
2022/04/26 07:14:13;;;;;;;12.52;4.65;;;11.20;93.00;;;;;;5038864;27;92794;-71
2022/04/26 07:16:48;;;;;;;12.43;4.82;;;11.40;93.00;;;;;;5038621;28;92511;-71
2022/04/26 07:19:16;;;;;;;6.50;3.80;;;11.40;92.40;;;;;;5038484;27;93141;-71
2022/04/26 07:21:46;;;;;;;7.00;3.75;;;11.40;92.00;;;;;;5038963;27;91778;-71
2022/04/26 07:24:31;;;;;;;7.15;4.03;;;11.50;92.00;;;;;;5037578;28;92466;-71
2022/04/26 07:26:59;;;;;;;5.85;3.70;;;11.50;91.90;;;;;;5020651;28;92467;-71
2022/04/26 07:29:27;;;;;;;7.28;4.10;;;11.50;91.90;;;;;;5037053;27;95558;-70
2022/04/26 07:31:55;;;;;;;10.02;4.20;;;11.60;91.90;;;;;;5038543;27;95279;-71
2022/04/26 07:34:26;;;;;;;8.60;4.95;;;11.70;91.90;;;;;;5036802;28;97161;-71
2022/04/26 07:37:02;;;;;;;11.95;4.50;;;11.90;91.80;;;;;;5038844;27;92416;-71
2022/04/26 07:39:34;;;;;;;9.48;4.25;;;11.90;91.50;;;;;;5038345;28;93814;-71
2022/04/26 07:42:04;;;;;;;6.57;4.50;;;11.90;91.50;;;;;;5038322;27;93777;-71
2022/04/26 07:44:33;;;;;;;6.97;4.50;;;11.90;91.30;;;;;;5038235;28;92449;-71
2022/04/26 07:47:00;;;;;;;9.52;3.97;;;11.90;91.40;;;;;;5037549;28;91810;-71
2022/04/26 07:49:27;;;;;;;9.43;4.13;;;11.90;91.20;;;;;;5037976;27;93163;-71
2022/04/26 07:51:54;;;;;;;5.70;4.43;;;12.10;90.80;;;;;;5036918;28;95623;-71
2022/04/26 07:54:21;;;;;;;8.10;3.20;;;12.20;90.60;;;;;;5036879;27;94855;-71
2022/04/26 07:56:48;;;;;;;5.10;3.55;;;12.20;90.20;;;;;;5037212;28;92493;-71
2022/04/26 07:59:15;;;;;;;9.98;3.53;;;12.40;90.30;;;;;;5037955;27;93032;-71
2022/04/26 08:01:42;;;;;;;7.53;4.47;;;12.50;90.10;;;;;;5020104;28;94204;-71
2022/04/26 08:04:10;;;;;;;5.45;3.78;;;12.40;89.70;;;;;;5036857;28;92474;-71
2022/04/26 08:06:36;;;;;;;6.13;4.05;;;12.40;89.70;;;;;;5036614;28;92505;-71
2022/04/26 08:09:03;;;;;;;8.75;5.38;;;12.40;89.70;;;;;;5036488;27;96292;-71
2022/04/26 08:11:30;;;;;;;6.40;4.20;;;12.60;89.80;;;;;;5019899;28;95964;-71
2022/04/26 08:13:57;;;;;;;7.72;3.67;;;12.70;89.20;;;;;;5037998;27;92470;-71
2022/04/26 08:16:24;;;;;;;7.05;4.07;;;12.90;88.20;;;;;;5037991;28;92834;-71
2022/04/26 08:18:52;;;;;;;6.40;4.05;;;12.90;87.50;;;;;;5035010;28;95736;-71
2022/04/26 08:21:19;;;;;;;7.53;4.22;;;13.10;87.00;;;;;;5037263;27;95392;-71
2022/04/26 08:29:19;;;;;;;6.22;3.60;;;13.50;84.80;;;;;;5036570;28;93326;-71
2022/04/26 08:31:46;;;;;;;4.65;3.72;;;13.60;83.60;;;;;;5037461;27;92952;-71
2022/04/26 08:34:13;;;;;;;8.23;4.35;;;13.50;82.40;;;;;;5037452;27;92387;-71
2022/04/26 08:36:40;;;;;;;7.25;4.30;;;13.50;82.90;;;;;;5036898;28;91736;-71
2022/04/26 08:39:07;;;;;;;8.13;3.72;;;13.50;82.50;;;;;;5019304;28;95755;-71
2022/04/26 08:41:34;;;;;;;4.93;3.75;;;13.50;82.40;;;;;;5037176;27;93012;-71
2022/04/26 08:44:07;;;;;;;7.53;3.95;;;13.50;82.40;;;;;;5034984;28;94907;-71
2022/04/26 08:52:06;;;;;;;7.80;4.70;;;13.30;81.40;;;;;;5036209;28;94425;-71
2022/04/26 08:54:34;;;;;;;4.40;2.88;;;13.40;81.80;;;;;;5019515;28;92512;-71
2022/04/26 08:57:01;;;;;;;5.13;3.55;;;13.50;80.10;;;;;;5037456;27;92460;-71
2022/04/26 08:59:30;;;;;;;5.90;3.80;;;13.70;81.10;;;;;;5018796;28;95832;-71
2022/04/26 09:02:22;;;;;;;7.75;3.33;;;13.80;80.60;;;;;;5037420;27;93116;-71
2022/04/26 09:04:51;;;;;;;4.68;3.22;;;13.80;79.90;;;;;;5037428;27;92434;-71
2022/04/26 09:07:29;;;;;;;5.30;2.95;;;14.00;80.10;;;;;;5035673;28;92826;-71
2022/04/26 09:10:11;;;;;;;5.85;3.20;;;14.20;77.40;;;;;;5035723;27;95763;-71
2022/04/26 09:13:07;;;;;;;4.75;3.90;;;14.10;77.80;;;;;;5036798;27;95033;-71
2022/04/26 09:15:56;;;;;;;4.93;3.22;;;14.20;78.60;;;;;;5035238;28;92373;-71
2022/04/26 09:18:32;;;;;;;5.57;2.97;;;14.20;79.00;;;;;;5035066;28;92953;-71
2022/04/26 09:21:09;;;;;;;10.73;3.42;;;14.10;78.20;;;;;;5036413;27;93125;-71
2022/04/26 09:23:39;;;;;;;6.05;3.95;;;14.00;78.90;;;;;;5035182;28;95720;-71
2022/04/26 09:26:14;;;;;;;7.35;3.63;;;13.90;79.60;;;;;;5035284;28;92432;-71
2022/04/26 09:28:46;;;;;;;7.30;3.70;;;13.90;80.20;;;;;;5035555;28;91671;-71
2022/04/26 09:31:22;;;;;;;6.93;3.35;;;13.80;80.20;;;;;;5035363;28;93205;-71
2022/04/26 09:33:53;;;;;;;5.82;3.97;;;14.00;79.00;;;;;;5036808;27;92986;-71
2022/04/26 09:36:22;;;;;;;6.95;4.03;;;13.90;79.20;;;;;;5034021;28;94939;-71
2022/04/26 09:38:54;;;;;;;5.03;3.13;;;14.10;78.70;;;;;;5036727;27;92452;-71
2022/04/26 09:41:22;;;;;;;3.40;2.80;;;14.10;77.80;;;;;;5035068;28;93332;-71
2022/04/26 09:44:09;;;;;;;8.50;3.72;;;14.10;77.60;;;;;;5036454;27;93002;-71
2022/04/26 09:46:46;;;;;;;4.57;3.20;;;14.30;78.30;;;;;;5036576;27;92449;-71
2022/04/26 09:49:14;;;;;;;7.57;3.40;;;14.20;76.80;;;;;;5035199;28;92521;-71
2022/04/26 09:51:42;;;;;;;5.60;2.92;;;14.10;77.70;;;;;;5034720;28;95639;-71
2022/04/26 09:54:09;;;;;;;5.47;3.20;;;14.10;76.60;;;;;;5035201;28;95542;-71
2022/04/26 09:56:37;;;;;;;5.25;3.88;;;14.20;77.00;;;;;;5036384;27;92378;-71
2022/04/26 09:59:05;;;;;;;4.82;2.72;;;14.20;76.50;;;;;;5036255;28;92409;-71
2022/04/26 10:01:39;;;;;;;5.75;3.30;;;14.10;76.40;;;;;;5034481;27;95424;-71
2022/04/26 10:04:08;;;;;;;5.25;3.00;;;14.10;75.80;;;;;;5036289;28;95394;-71
2022/04/26 10:06:40;;;;;;;5.40;4.18;;;14.20;76.70;;;;;;5036011;28;92402;-71
2022/04/26 10:09:09;;;;;;;6.32;3.15;;;14.20;76.60;;;;;;5036254;27;92888;-71
2022/04/26 10:11:37;;;;;;;6.78;2.72;;;14.40;74.50;;;;;;5034448;28;95942;-71
2022/04/26 10:14:08;;;;;;;6.05;3.97;;;14.40;73.00;;;;;;5036054;28;92932;-71
2022/04/26 10:16:36;;;;;;;5.53;3.10;;;14.80;73.80;;;;;;5036261;27;92415;-71
2022/04/26 10:19:06;;;;;;;7.20;3.40;;;15.00;72.30;;;;;;5018084;28;91809;-71
2022/04/26 10:21:39;;;;;;;6.22;3.03;;;15.00;71.30;;;;;;5035675;27;93860;-71
2022/04/26 10:24:19;;;;;;;4.55;2.90;;;14.90;71.10;;;;;;5035799;27;92775;-71
2022/04/26 10:26:46;;;;;;;6.85;3.78;;;14.90;70.70;;;;;;5034754;27;94721;-71
2022/04/26 10:29:22;;;;;;;5.97;3.70;;;14.70;71.50;;;;;;5036314;27;92815;-71
2022/04/26 10:31:57;;;;;;;3.80;3.30;;;14.90;72.10;;;;;;5033168;27;95723;-71
2022/04/26 10:34:30;;;;;;;5.40;4.13;;;14.80;71.70;;;;;;5034859;28;93002;-71
2022/04/26 10:37:20;;;;;;;4.30;3.25;;;15.00;71.40;;;;;;5034594;28;92467;-71
2022/04/26 10:40:14;;;;;;;6.75;3.30;;;15.00;70.20;;;;;;5027672;27;92395;-71
2022/04/26 10:42:41;;;;;;;5.75;3.53;;;15.10;70.30;;;;;;5031711;28;97153;-71
2022/04/26 10:45:11;;;;;;;5.93;3.65;;;15.10;70.30;;;;;;5035792;27;93119;-71
2022/04/26 10:47:40;;;;;;;9.50;3.78;;;15.30;69.60;;;;;;5034152;28;92536;-71
2022/04/26 10:50:09;;;;;;;6.15;3.33;;;15.30;69.90;;;;;;5035355;27;92420;-71
2022/04/26 10:52:40;;;;;;;7.25;3.38;;;15.30;68.50;;;;;;5033993;27;95631;-71
2022/04/26 10:55:09;;;;;;;4.85;4.35;;;15.40;68.20;;;;;;5034341;28;95432;-71
2022/04/26 10:57:42;;;;;;;3.92;2.88;;;15.40;68.00;;;;;;5035259;27;92395;-71
2022/04/26 11:00:12;;;;;;;5.30;3.30;;;15.20;67.00;;;;;;5035735;27;92346;-71
2022/04/26 11:02:41;;;;;;;4.60;4.05;;;15.30;67.80;;;;;;5034097;28;93126;-71
2022/04/26 11:05:23;;;;;;;3.97;3.17;;;15.40;68.20;;;;;;5035203;28;93040;-71
2022/04/26 11:07:51;;;;;;;4.10;3.42;;;15.40;67.70;;;;;;5034204;28;92905;-71
2022/04/26 11:10:26;;;;;;;5.45;3.75;;;15.30;67.50;;;;;;5017314;28;91756;-71
2022/04/26 11:12:58;;;;;;;6.78;4.05;;;15.20;67.40;;;;;;5035306;27;93055;-70
2022/04/26 11:15:25;;;;;;;5.47;4.13;;;15.20;68.50;;;;;;5034177;28;92472;-70
2022/04/26 11:17:55;;;;;;;6.05;3.70;;;15.40;67.80;;;;;;5031506;28;99599;-70
2022/04/26 11:20:24;;;;;;;6.85;3.40;;;15.70;66.30;;;;;;5017094;28;92487;-70
2022/04/26 11:22:52;;;;;;;4.93;3.90;;;15.80;65.60;;;;;;5033485;28;93420;-70
2022/04/26 11:28:09;;;;;;;5.20;3.80;;;15.60;66.20;;;;;;5035205;28;92552;-70
2022/04/26 11:30:36;;;;;;;5.72;3.25;;;15.50;66.30;;;;;;5033609;28;92561;-70
2022/04/26 11:33:11;;;;;;;5.43;3.72;;;15.30;67.00;;;;;;5032709;28;95851;-70
2022/04/26 11:35:39;;;;;;;6.32;3.28;;;15.40;66.60;;;;;;5024608;28;95762;-70
2022/04/26 11:38:17;;;;;;;3.83;3.40;;;15.50;66.40;;;;;;5033891;28;92753;-70
2022/04/26 11:40:48;;;;;;;4.40;2.95;;;15.60;65.20;;;;;;5016705;28;92468;-70
2022/04/26 11:43:18;;;;;;;6.70;3.15;;;15.80;64.90;;;;;;5034404;28;95490;-70
2022/04/26 11:45:47;;;;;;;6.13;3.72;;;16.00;64.00;;;;;;5037960;27;95358;-70
2022/04/26 11:48:20;;;;;;;4.35;2.80;;;15.80;64.40;;;;;;5037089;27;92399;-70
2022/04/26 11:50:49;;;;;;;7.60;3.85;;;15.60;65.00;;;;;;5038407;28;92444;-70
2022/04/26 11:53:43;;;;;;;6.18;4.47;;;15.70;65.70;;;;;;5038213;28;93640;-70
2022/04/26 11:56:12;;;;;;;4.72;3.83;;;15.80;66.70;;;;;;5035816;28;93004;-70
2022/04/26 11:58:40;;;;;;;5.00;4.45;;;15.70;65.10;;;;;;5037257;28;92442;-70
2022/04/26 12:01:16;;;;;;;3.90;3.28;;;15.70;65.80;;;;;;5038704;28;91722;-70
2022/04/26 12:03:52;;;;;;;4.43;3.97;;;15.50;65.80;;;;;;5037444;28;93349;-70
2022/04/26 12:06:31;;;;;;;5.60;4.30;;;15.70;66.50;;;;;;5037749;27;93180;-70
2022/04/26 12:09:03;;;;;;;6.93;3.60;;;15.80;64.80;;;;;;5036730;27;94793;-70
2022/04/26 12:11:35;;;;;;;8.90;3.63;;;15.70;64.50;;;;;;5036497;28;92747;-70
2022/04/26 12:14:02;;;;;;;6.93;3.65;;;15.50;65.20;;;;;;5036572;28;92560;-70
2022/04/26 12:16:31;;;;;;;5.28;3.55;;;15.40;65.90;;;;;;5037893;27;93057;-70
2022/04/26 12:19:05;;;;;;;5.30;3.72;;;15.60;65.90;;;;;;5035667;28;92440;-70
2022/04/26 12:21:59;;;;;;;4.07;3.55;;;15.50;63.90;;;;;;5053590;27;92405;-70
2022/04/26 12:24:29;;;;;;;6.03;4.35;;;15.70;63.30;;;;;;5053478;27;95732;-70
2022/04/26 12:27:16;;;;;;;4.05;3.75;;;15.80;64.50;;;;;;5037786;27;92222;-70
2022/04/26 12:29:53;;;;;;;4.93;4.20;;;15.80;64.50;;;;;;5037862;28;92432;-70
2022/04/26 12:32:24;;;;;;;6.22;3.40;;;15.80;64.80;;;;;;5036637;28;92412;-70
2022/04/26 12:34:56;;;;;;;5.35;4.00;;;15.60;64.20;;;;;;5036216;27;95597;-70
2022/04/26 12:37:26;;;;;;;7.63;4.35;;;15.70;64.20;;;;;;5036334;28;95373;-70
2022/04/26 12:39:55;;;;;;;5.03;3.30;;;15.80;64.50;;;;;;5037458;28;92903;-70
2022/04/26 12:42:28;;;;;;;7.72;3.83;;;15.90;65.60;;;;;;5019227;28;92492;-70
2022/04/26 12:45:11;;;;;;;7.40;3.73;;;15.90;64.70;;;;;;5035922;28;95605;-70
2022/04/26 12:50:33;;;;;;;6.13;4.50;;;15.90;64.10;;;;;;5037888;28;92479;-70
2022/04/26 12:53:00;;;;;;;7.05;3.63;;;16.00;64.00;;;;;;5037845;27;92016;-70
2022/04/26 12:55:33;;;;;;;5.25;3.50;;;16.00;62.90;;;;;;5036422;27;93100;-70
2022/04/26 12:58:14;;;;;;;4.97;3.83;;;15.90;63.50;;;;;;5037273;28;93012;-70
2022/04/26 13:00:47;;;;;;;6.10;3.80;;;15.70;64.90;;;;;;5034920;28;95680;-70
2022/04/26 13:03:18;;;;;;;5.75;4.05;;;15.60;65.10;;;;;;5037264;27;92397;-70
2022/04/26 13:05:46;;;;;;;5.10;3.58;;;15.60;64.70;;;;;;5037196;28;93327;-70
2022/04/26 13:08:16;;;;;;;5.50;3.50;;;15.70;65.20;;;;;;5035909;28;92486;-70
2022/04/26 13:10:44;;;;;;;5.82;3.08;;;15.80;63.60;;;;;;5037185;27;92982;-70
2022/04/26 13:13:12;;;;;;;5.63;3.45;;;15.80;62.40;;;;;;5035478;27;92431;-70
2022/04/26 13:15:41;;;;;;;4.88;4.13;;;15.90;61.80;;;;;;5035534;28;95803;-70
2022/04/26 13:18:10;;;;;;;5.07;3.60;;;16.20;61.30;;;;;;5036425;27;92819;-70
2022/04/26 13:20:37;;;;;;;6.25;3.35;;;16.50;61.10;;;;;;5018982;28;92360;-70
2022/04/26 13:23:11;;;;;;;4.93;3.25;;;16.60;61.30;;;;;;5019266;28;92369;-70
2022/04/26 13:25:38;;;;;;;5.20;4.30;;;16.70;62.60;;;;;;5035434;27;95393;-72
2022/04/26 13:28:06;;;;;;;4.80;3.38;;;16.50;61.30;;;;;;5034993;28;98038;-70
2022/04/26 13:30:33;;;;;;;5.97;3.67;;;16.50;60.60;;;;;;5036860;28;92437;-70
2022/04/26 13:33:01;;;;;;;5.03;3.78;;;16.60;60.50;;;;;;5035611;28;92827;-70
2022/04/26 13:35:28;;;;;;;6.25;4.03;;;16.60;59.60;;;;;;5035440;28;93274;-70
2022/04/26 13:37:58;;;;;;;5.75;4.28;;;16.70;59.80;;;;;;5036195;28;93052;-70
2022/04/26 13:40:26;;;;;;;5.93;4.05;;;16.60;60.10;;;;;;5035351;28;92471;-70
2022/04/26 13:42:56;;;;;;;7.53;3.63;;;16.50;60.60;;;;;;5036912;28;91707;-70
2022/04/26 13:45:24;;;;;;;3.85;3.03;;;16.30;60.30;;;;;;5035355;28;93327;-70
2022/04/26 13:47:51;;;;;;;5.45;4.95;;;16.30;61.20;;;;;;5036410;27;93010;-70
2022/04/26 13:50:19;;;;;;;4.85;3.33;;;16.40;61.30;;;;;;5035494;27;94781;-70
2022/04/26 13:52:46;;;;;;;5.90;3.55;;;16.50;60.10;;;;;;5035031;28;92459;-70
2022/04/26 13:55:17;;;;;;;4.38;3.25;;;16.70;60.00;;;;;;5051858;27;93312;-70
2022/04/26 13:57:45;;;;;;;4.30;3.10;;;16.60;58.10;;;;;;5035187;28;92982;-70
2022/04/26 14:00:15;;;;;;;5.30;2.70;;;16.70;58.50;;;;;;5036144;27;92470;-70
2022/04/26 14:03:09;;;;;;;4.00;3.22;;;16.70;58.10;;;;;;5034934;28;92406;-70
2022/04/26 14:05:36;;;;;;;4.15;3.75;;;16.80;57.70;;;;;;5032439;28;95708;-70
2022/04/26 14:08:06;;;;;;;6.18;3.78;;;16.90;56.70;;;;;;5036226;28;94132;-70
2022/04/26 14:10:33;;;;;;;3.88;2.95;;;17.00;56.60;;;;;;5036288;27;92409;-70
2022/04/26 14:13:00;;;;;;;3.50;3.03;;;17.10;56.60;;;;;;5034786;28;92477;-70
2022/04/26 14:23:43;;;;;;;5.40;3.17;;;17.40;56.00;;;;;;5036113;28;92350;-70
2022/04/26 14:26:10;;;;;;;3.63;3.30;;;17.40;54.60;;;;;;5034046;28;104717;-70
2022/04/26 14:28:37;;;;;;;4.28;2.85;;;17.40;54.30;;;;;;5034534;28;95573;-70
2022/04/26 14:31:04;;;;;;;4.82;2.95;;;17.20;52.50;;;;;;5017779;28;92567;-70
2022/04/26 14:33:33;;;;;;;5.40;3.10;;;17.10;53.90;;;;;;5034875;27;91712;-70
2022/04/26 14:36:00;;;;;;;3.88;3.17;;;17.10;54.50;;;;;;5034152;28;93068;-70
2022/04/26 14:38:29;;;;;;;4.32;3.92;;;17.10;55.10;;;;;;5034195;28;92879;-70
2022/04/26 14:40:55;;;;;;;4.10;2.75;;;17.20;56.10;;;;;;5033302;28;94932;-70
2022/04/26 14:43:22;;;;;;;4.53;2.90;;;17.20;56.10;;;;;;5034037;28;92513;-70
2022/04/26 14:45:51;;;;;;;6.25;3.90;;;17.10;55.40;;;;;;5035758;28;93193;-70
2022/04/26 14:48:18;;;;;;;6.35;3.60;;;16.90;56.30;;;;;;5034138;28;95613;-70
2022/04/26 14:51:05;;;;;;;4.55;3.20;;;16.90;56.00;;;;;;5034061;28;92558;-70
2022/04/26 14:53:32;;;;;;;4.93;3.17;;;17.00;56.90;;;;;;5034361;28;92458;-70
2022/04/26 14:56:09;;;;;;;3.45;2.90;;;17.00;56.10;;;;;;5067723;27;95666;-70
2022/04/26 14:59:00;;;;;;;4.97;3.13;;;17.00;55.20;;;;;;5036111;28;91879;-70
2022/04/26 15:01:34;;;;;;;5.07;3.22;;;17.10;56.00;;;;;;5067733;27;92478;-70
2022/04/26 15:04:01;;;;;;;2.50;2.25;;;17.10;56.20;;;;;;5035372;28;92439;-70
2022/04/26 15:06:28;;;;;;;4.80;3.50;;;17.20;55.90;;;;;;5033864;28;95546;-70
2022/04/26 15:11:43;;;;;;;4.30;3.08;;;17.20;56.00;;;;;;5034549;27;92650;-70
2022/04/26 15:16:56;;;;;;;4.78;3.20;;;17.00;57.80;;;;;;5033609;28;95239;-70
2022/04/26 15:19:23;;;;;;;4.93;3.38;;;16.90;57.40;;;;;;5037262;27;93649;-70
2022/04/26 15:21:49;;;;;;;4.28;3.28;;;17.00;58.50;;;;;;5037643;27;92475;-70
2022/04/26 15:24:17;;;;;;;5.10;3.08;;;17.00;58.50;;;;;;5020566;28;91790;-70
2022/04/26 15:26:44;;;;;;;4.30;3.15;;;17.00;57.80;;;;;;5037430;28;93323;-70
2022/04/26 15:29:11;;;;;;;4.65;3.47;;;16.90;58.90;;;;;;5037290;28;92796;-70
2022/04/26 15:31:38;;;;;;;8.90;5.15;;;16.90;60.30;;;;;;5037703;27;94733;-70
2022/04/26 15:34:05;;;;;;;6.18;3.38;;;16.70;59.00;;;;;;5020580;28;92494;-70
2022/04/26 15:36:33;;;;;;;4.22;3.47;;;16.60;60.00;;;;;;5037351;28;92963;-70
2022/04/26 15:39:01;;;;;;;4.50;3.10;;;16.30;59.90;;;;;;5038469;28;92967;-70
2022/04/26 15:41:29;;;;;;;6.13;3.67;;;16.10;60.20;;;;;;5038134;28;92373;-70
2022/04/26 15:43:56;;;;;;;6.05;3.40;;;16.00;61.50;;;;;;5038543;28;92531;-70
2022/04/26 15:46:40;;;;;;;4.93;3.33;;;15.70;61.90;;;;;;5037475;28;93319;-69
2022/04/26 15:49:08;;;;;;;5.00;3.13;;;15.60;61.80;;;;;;5038626;27;92918;-69
2022/04/26 15:51:35;;;;;;;5.53;3.45;;;15.40;62.40;;;;;;5020592;28;92551;-69
2022/04/26 15:54:03;;;;;;;6.38;3.28;;;15.40;63.10;;;;;;5038391;28;92427;-71
2022/04/26 15:56:30;;;;;;;6.53;3.05;;;15.40;63.30;;;;;;5035263;28;98277;-69
2022/04/26 15:58:57;;;;;;;6.57;3.78;;;15.40;62.30;;;;;;5038064;28;95600;-69
2022/04/26 16:01:25;;;;;;;3.97;3.33;;;15.40;63.90;;;;;;5019925;28;92498;-69
2022/04/26 16:03:54;;;;;;;4.97;3.40;;;15.10;64.10;;;;;;5036552;28;92558;-69
2022/04/26 16:06:21;;;;;;;6.05;3.30;;;15.00;65.10;;;;;;5036394;27;93416;-69
2022/04/26 16:08:48;;;;;;;4.57;3.00;;;15.00;65.30;;;;;;5038043;27;92908;-69
2022/04/26 16:22:16;;;;;;;7.68;3.40;;;14.70;66.40;;;;;;5036597;27;94735;-69
2022/04/26 16:24:43;;;;;;;5.50;2.75;;;14.60;66.30;;;;;;5037839;27;92816;-72
2022/04/26 16:27:10;;;;;;;6.03;3.13;;;14.60;66.60;;;;;;5019473;28;95899;-69
2022/04/26 16:29:37;;;;;;;5.50;3.53;;;14.50;67.00;;;;;;5034574;27;95651;-69
2022/04/26 16:32:04;;;;;;;3.25;2.95;;;14.40;66.70;;;;;;5037947;27;92527;-69
2022/04/26 16:34:31;;;;;;;5.30;2.90;;;14.50;66.90;;;;;;5037416;28;92847;-69
2022/04/26 16:36:58;;;;;;;3.72;3.35;;;14.50;66.30;;;;;;5037726;28;93186;-69
2022/04/26 16:39:25;;;;;;;4.15;3.10;;;14.60;67.40;;;;;;5037690;27;92979;-69
2022/04/26 16:41:52;;;;;;;3.10;2.63;;;14.70;65.70;;;;;;5037838;27;92441;-69
2022/04/26 16:44:23;;;;;;;5.15;2.80;;;14.70;64.90;;;;;;5037429;28;92934;-69
2022/04/26 16:46:50;;;;;;;4.65;2.88;;;14.90;64.90;;;;;;5035218;28;95756;-69
2022/04/26 16:49:17;;;;;;;3.65;2.80;;;15.00;65.10;;;;;;5035764;28;94357;-69
2022/04/26 16:51:44;;;;;;;5.38;2.60;;;15.00;62.50;;;;;;5035963;28;92548;-69
2022/04/26 16:54:12;;;;;;;4.50;3.05;;;15.00;62.50;;;;;;5036254;28;92443;-69
2022/04/26 16:56:43;;;;;;;3.28;2.78;;;14.90;62.40;;;;;;5019907;28;95858;-69
2022/04/26 16:59:13;;;;;;;6.13;3.10;;;14.90;63.60;;;;;;5035886;28;96000;-69
2022/04/26 17:01:41;;;;;;;3.80;3.40;;;14.80;64.90;;;;;;5037119;27;92334;-69
2022/04/26 17:04:12;;;;;;;6.65;3.05;;;14.80;65.70;;;;;;5036383;28;91742;-70
2022/04/26 17:06:40;;;;;;;4.95;3.70;;;14.80;65.20;;;;;;5036879;27;93165;-70
2022/04/26 17:09:07;;;;;;;4.43;3.28;;;14.90;65.60;;;;;;5035863;28;92713;-70
2022/04/26 17:11:43;;;;;;;4.28;2.78;;;14.90;65.00;;;;;;5035816;27;94809;-70
2022/04/26 17:14:16;;;;;;;3.13;2.85;;;14.80;65.20;;;;;;5036020;28;92374;-70
2022/04/26 17:16:46;;;;;;;2.38;2.17;;;14.70;66.30;;;;;;5036828;27;92447;-70
2022/04/26 17:19:14;;;;;;;3.30;2.60;;;14.60;65.90;;;;;;5018361;28;95577;-70